Time;durP1;ratioP1;P1;durP2;ratioP2;P2;SDS_P1;SDS_P2;PMS_P1;PMS_P2;Temp;Humidity;BMP_temperature;BMP_pressure;BME280_temperature;BME280_humidity;BME280_pressure;Samples;Min_cycle;Max_cycle;Signal;HPM_P1;HPM_P2
2024/01/29 00:00:15;;;;;;;8.75;3.75;;;5.60;99.90;;;;;;5035267;28;20100;-77
2024/01/29 00:02:44;;;;;;;6.25;3.42;;;5.60;99.90;;;;;;5035672;28;20320;-77
2024/01/29 00:05:10;;;;;;;8.90;3.28;;;5.70;99.90;;;;;;5035173;28;20071;-77
2024/01/29 00:07:36;;;;;;;7.82;3.67;;;5.70;99.90;;;;;;5035424;28;20120;-76
2024/01/29 00:10:06;;;;;;;7.68;3.60;;;5.70;99.90;;;;;;5017042;28;20049;-77
2024/01/29 00:12:31;;;;;;;6.40;3.42;;;5.70;99.90;;;;;;5017596;28;20458;-77
2024/01/29 00:15:01;;;;;;;8.60;3.40;;;5.70;99.90;;;;;;5034873;28;20099;-77
2024/01/29 00:17:26;;;;;;;5.45;3.08;;;5.70;99.90;;;;;;5035282;28;20028;-77
2024/01/29 00:19:52;;;;;;;6.78;3.55;;;5.70;99.90;;;;;;5035028;28;20025;-77
2024/01/29 00:22:18;;;;;;;7.20;3.25;;;5.70;99.90;;;;;;5035317;28;20036;-77
2024/01/29 00:24:44;;;;;;;6.40;3.58;;;5.70;99.90;;;;;;5034807;28;20029;-76
2024/01/29 00:27:09;;;;;;;5.30;3.40;;;5.70;99.90;;;;;;5035375;28;20025;-77
2024/01/29 00:29:35;;;;;;;7.75;3.58;;;5.60;99.90;;;;;;5034600;28;20021;-77
2024/01/29 00:32:01;;;;;;;8.30;3.53;;;5.60;99.90;;;;;;5035185;28;20067;-77
2024/01/29 00:34:27;;;;;;;6.80;3.63;;;5.60;99.90;;;;;;5034519;28;20021;-76
2024/01/29 00:36:52;;;;;;;5.65;3.47;;;5.50;99.90;;;;;;5017090;28;20026;-77
2024/01/29 00:39:21;;;;;;;6.15;3.47;;;5.50;99.90;;;;;;5034632;28;20411;-77
2024/01/29 00:41:46;;;;;;;7.45;3.47;;;5.50;99.90;;;;;;5034995;28;20057;-77
2024/01/29 00:44:12;;;;;;;7.13;3.47;;;5.40;99.90;;;;;;5034812;28;20017;-77
2024/01/29 00:46:42;;;;;;;7.68;3.60;;;5.40;99.90;;;;;;5035049;28;20057;-77
2024/01/29 00:49:11;;;;;;;7.22;3.30;;;5.30;99.90;;;;;;5034684;28;20102;-77
2024/01/29 00:51:37;;;;;;;8.02;3.70;;;5.30;99.90;;;;;;5034768;28;20025;-77
2024/01/29 00:54:03;;;;;;;6.50;3.70;;;5.20;99.90;;;;;;5034610;28;20017;-78
2024/01/29 00:56:29;;;;;;;6.90;3.65;;;5.20;99.90;;;;;;5035030;28;20360;-78
2024/01/29 00:58:57;;;;;;;5.75;3.65;;;5.10;99.90;;;;;;5034381;28;20018;-77
2024/01/29 01:01:23;;;;;;;7.05;3.67;;;5.10;99.90;;;;;;5017154;28;20029;-77
2024/01/29 01:03:49;;;;;;;8.10;3.58;;;5.00;99.90;;;;;;5034492;28;20088;-77
2024/01/29 01:06:14;;;;;;;7.43;3.45;;;5.00;99.90;;;;;;5037320;28;20040;-77
2024/01/29 01:08:40;;;;;;;8.98;3.92;;;5.00;99.90;;;;;;5038022;28;20064;-78
2024/01/29 01:11:07;;;;;;;10.00;3.83;;;4.90;99.90;;;;;;5038772;28;20080;-77
2024/01/29 01:13:33;;;;;;;8.40;4.05;;;4.90;99.90;;;;;;5038278;28;20024;-77
2024/01/29 01:15:58;;;;;;;7.35;3.90;;;4.80;99.90;;;;;;5037538;28;20053;-77
2024/01/29 01:18:24;;;;;;;8.65;3.63;;;4.80;99.90;;;;;;5037064;28;20494;-78
2024/01/29 01:20:50;;;;;;;8.45;3.80;;;4.80;99.90;;;;;;5037082;28;20014;-78
2024/01/29 01:23:16;;;;;;;8.60;3.75;;;4.70;99.90;;;;;;5019422;28;20040;-78
2024/01/29 01:25:41;;;;;;;6.82;3.85;;;4.70;99.90;;;;;;5036909;28;20025;-77
2024/01/29 01:28:08;;;;;;;7.78;4.05;;;4.70;99.90;;;;;;5036877;28;20014;-77
2024/01/29 01:30:34;;;;;;;7.72;3.92;;;4.70;99.90;;;;;;5037513;28;20025;-77
2024/01/29 01:33:00;;;;;;;8.05;3.65;;;4.60;99.90;;;;;;5036968;28;20080;-77
2024/01/29 01:35:25;;;;;;;7.18;4.03;;;4.60;99.90;;;;;;5036350;28;20104;-77
2024/01/29 01:37:51;;;;;;;8.20;4.03;;;4.60;99.90;;;;;;5037080;28;20022;-77
2024/01/29 01:40:18;;;;;;;6.95;3.70;;;4.60;99.90;;;;;;5036451;28;20048;-77
2024/01/29 01:42:44;;;;;;;6.70;3.78;;;4.50;99.90;;;;;;5019264;28;20372;-76
2024/01/29 01:45:11;;;;;;;8.40;3.92;;;4.50;99.90;;;;;;5018345;28;20017;-77
2024/01/29 01:47:37;;;;;;;6.38;3.90;;;4.50;99.90;;;;;;5036975;28;20037;-77
2024/01/29 01:50:05;;;;;;;7.60;3.85;;;4.50;99.90;;;;;;5018526;28;20053;-76
2024/01/29 01:52:35;;;;;;;6.32;3.83;;;4.50;99.90;;;;;;5036836;28;20052;-77
2024/01/29 01:55:00;;;;;;;7.32;3.80;;;4.40;99.90;;;;;;5036069;28;20018;-77
2024/01/29 01:57:28;;;;;;;7.25;4.07;;;4.40;99.90;;;;;;5036757;28;20029;-77
2024/01/29 01:59:55;;;;;;;7.95;3.90;;;4.30;99.90;;;;;;5036558;28;20126;-76
2024/01/29 02:02:21;;;;;;;6.38;3.78;;;4.30;99.90;;;;;;5036719;28;20488;-77
2024/01/29 02:04:47;;;;;;;6.95;4.25;;;4.30;99.90;;;;;;5036206;28;20037;-77
2024/01/29 02:07:13;;;;;;;6.00;3.88;;;4.30;99.90;;;;;;5036568;28;20492;-77
2024/01/29 02:09:39;;;;;;;9.63;3.90;;;4.30;99.90;;;;;;5035988;28;20022;-76
2024/01/29 02:12:08;;;;;;;7.03;4.07;;;4.20;99.90;;;;;;5036274;28;20151;-77
2024/01/29 02:14:33;;;;;;;9.03;4.00;;;4.20;99.90;;;;;;4892903;28;3605360;-77
2024/01/29 02:16:59;;;;;;;8.70;3.70;;;4.20;99.90;;;;;;5019802;28;20026;-77
2024/01/29 02:19:28;;;;;;;8.10;4.28;;;4.20;99.90;;;;;;5023353;28;20300;-78
2024/01/29 02:21:54;;;;;;;7.18;3.72;;;4.10;99.90;;;;;;5037733;28;20022;-78
2024/01/29 02:24:20;;;;;;;7.18;4.25;;;4.10;99.90;;;;;;5018952;28;20116;-78
2024/01/29 02:26:47;;;;;;;6.90;3.97;;;4.10;99.90;;;;;;5038100;28;20033;-78
2024/01/29 02:29:13;;;;;;;8.32;4.28;;;4.10;99.90;;;;;;5036978;28;20086;-78
2024/01/29 02:31:39;;;;;;;8.30;4.55;;;4.10;99.90;;;;;;5037262;28;20060;-78
2024/01/29 02:34:07;;;;;;;8.77;4.30;;;4.10;99.90;;;;;;5036852;28;20049;-78
2024/01/29 02:36:33;;;;;;;6.55;3.58;;;4.10;99.90;;;;;;5037328;28;20029;-78
2024/01/29 02:38:58;;;;;;;7.32;3.90;;;4.10;99.90;;;;;;5036821;28;20025;-78
2024/01/29 02:41:27;;;;;;;9.02;3.90;;;4.10;99.90;;;;;;5037044;28;20026;-78
2024/01/29 02:43:53;;;;;;;7.82;4.00;;;4.00;99.90;;;;;;5018836;28;20017;-78
2024/01/29 02:46:21;;;;;;;7.90;4.05;;;4.00;99.90;;;;;;5037211;28;20491;-78
2024/01/29 02:48:47;;;;;;;6.65;3.75;;;4.00;99.90;;;;;;5036376;28;20077;-78
2024/01/29 02:51:16;;;;;;;6.40;3.75;;;4.00;99.90;;;;;;5019002;28;20486;-77
2024/01/29 02:53:41;;;;;;;7.68;4.00;;;4.00;99.90;;;;;;5036402;28;20104;-77
2024/01/29 02:56:07;;;;;;;7.68;4.20;;;3.90;99.90;;;;;;5036759;28;20029;-76
2024/01/29 02:58:36;;;;;;;9.27;3.80;;;4.00;99.90;;;;;;5036832;28;20027;-76
2024/01/29 03:01:01;;;;;;;7.57;3.97;;;3.90;99.90;;;;;;5037106;28;20032;-76
2024/01/29 03:03:27;;;;;;;9.48;4.53;;;3.90;99.90;;;;;;5036500;28;20025;-76
2024/01/29 03:05:53;;;;;;;8.32;4.40;;;3.90;99.90;;;;;;5036709;28;20082;-76
2024/01/29 03:08:18;;;;;;;7.40;4.13;;;3.90;99.90;;;;;;5036750;28;20021;-77
2024/01/29 03:10:44;;;;;;;8.52;3.92;;;3.90;99.90;;;;;;5035815;28;20502;-77
2024/01/29 03:13:10;;;;;;;9.25;3.83;;;3.90;99.90;;;;;;5036492;28;20025;-77
2024/01/29 03:15:35;;;;;;;8.30;4.05;;;3.90;99.90;;;;;;5018000;28;20033;-77
2024/01/29 03:18:01;;;;;;;8.50;4.32;;;3.80;99.90;;;;;;5036520;28;20017;-77
2024/01/29 03:20:27;;;;;;;10.23;4.40;;;3.80;99.90;;;;;;5035691;28;20021;-77
2024/01/29 03:22:52;;;;;;;6.32;3.95;;;3.80;99.90;;;;;;5036686;28;20037;-77
2024/01/29 03:25:21;;;;;;;7.97;4.32;;;3.80;99.90;;;;;;5035757;28;20079;-77
2024/01/29 03:27:46;;;;;;;9.73;4.43;;;3.80;99.90;;;;;;5035954;28;20045;-76
2024/01/29 03:30:12;;;;;;;8.15;5.00;;;3.80;99.90;;;;;;5035521;28;20399;-77
2024/01/29 03:32:41;;;;;;;9.88;4.70;;;3.80;99.90;;;;;;5036120;28;20025;-77
2024/01/29 03:35:08;;;;;;;8.15;4.70;;;3.80;99.90;;;;;;5035387;28;20079;-77
2024/01/29 03:37:37;;;;;;;8.50;4.07;;;3.80;99.90;;;;;;5018333;28;20029;-77
2024/01/29 03:40:04;;;;;;;9.65;4.40;;;3.80;99.90;;;;;;5035290;28;20018;-77
2024/01/29 03:42:33;;;;;;;8.05;4.30;;;3.70;99.90;;;;;;5018150;28;20120;-77
2024/01/29 03:44:59;;;;;;;6.40;3.90;;;3.70;99.90;;;;;;5035370;28;20089;-77
2024/01/29 03:47:27;;;;;;;8.13;4.25;;;3.70;99.90;;;;;;5035805;28;20118;-77
2024/01/29 03:49:53;;;;;;;9.20;4.50;;;3.70;99.90;;;;;;5034969;28;20033;-77
2024/01/29 03:52:18;;;;;;;7.20;4.55;;;3.70;99.90;;;;;;5018160;28;20022;-77
2024/01/29 03:54:47;;;;;;;7.88;4.32;;;3.60;99.90;;;;;;5017619;28;20574;-78
2024/01/29 03:57:13;;;;;;;8.05;4.90;;;3.70;99.90;;;;;;5035627;28;20077;-77
2024/01/29 03:59:38;;;;;;;8.20;4.57;;;3.70;99.90;;;;;;5035216;28;20495;-77
2024/01/29 04:02:04;;;;;;;7.80;4.03;;;3.70;99.90;;;;;;5035636;28;20124;-78
2024/01/29 04:04:30;;;;;;;7.05;3.92;;;3.60;99.90;;;;;;5035647;28;20025;-77
2024/01/29 04:06:55;;;;;;;8.15;4.30;;;3.60;99.90;;;;;;5036184;28;20109;-77
2024/01/29 04:09:24;;;;;;;7.68;4.03;;;3.60;99.90;;;;;;5035721;28;20082;-77
2024/01/29 04:11:50;;;;;;;7.43;4.65;;;3.60;99.90;;;;;;5035476;28;20021;-78
2024/01/29 04:14:24;;;;;;;8.90;4.50;;;3.60;99.90;;;;;;5035018;28;20033;-78
2024/01/29 04:16:50;;;;;;;7.78;4.45;;;3.60;99.90;;;;;;5035418;28;20491;-77
2024/01/29 04:19:15;;;;;;;7.68;4.43;;;3.60;99.90;;;;;;5034916;28;20028;-76
2024/01/29 04:21:42;;;;;;;8.63;4.47;;;3.60;99.90;;;;;;5017674;28;20025;-76
2024/01/29 04:24:10;;;;;;;8.65;4.30;;;3.60;99.90;;;;;;5034671;28;20027;-77
2024/01/29 04:26:37;;;;;;;10.30;4.80;;;3.60;99.90;;;;;;5035218;28;20048;-76
2024/01/29 04:29:03;;;;;;;7.47;4.35;;;3.50;99.90;;;;;;5017080;28;20053;-77
2024/01/29 04:31:31;;;;;;;6.97;4.40;;;3.50;99.90;;;;;;5035213;28;20022;-76
2024/01/29 04:33:57;;;;;;;7.65;4.40;;;3.60;99.90;;;;;;5034999;28;20028;-77
2024/01/29 04:36:22;;;;;;;8.05;4.32;;;3.60;99.90;;;;;;5035005;28;20048;-76
2024/01/29 04:38:50;;;;;;;7.35;4.15;;;3.50;99.90;;;;;;5034754;28;20040;-77
2024/01/29 04:41:17;;;;;;;9.13;4.60;;;3.50;99.90;;;;;;5033875;28;20386;-76
2024/01/29 04:43:45;;;;;;;7.68;4.20;;;3.50;99.90;;;;;;5021418;28;20071;-77
2024/01/29 04:46:11;;;;;;;9.35;4.50;;;3.50;99.90;;;;;;5034761;28;20021;-77
2024/01/29 04:48:40;;;;;;;8.50;4.65;;;3.50;99.90;;;;;;5034988;28;20101;-77
2024/01/29 04:51:10;;;;;;;8.00;4.57;;;3.50;99.90;;;;;;5034274;28;20030;-77
2024/01/29 04:53:39;;;;;;;7.80;4.45;;;3.50;99.90;;;;;;5034848;28;20439;-76
2024/01/29 04:56:05;;;;;;;8.27;4.35;;;3.50;99.90;;;;;;5034657;28;20443;-77
2024/01/29 04:58:31;;;;;;;7.28;4.35;;;3.50;99.90;;;;;;5035373;28;20072;-75
2024/01/29 05:00:58;;;;;;;7.88;4.47;;;3.50;99.90;;;;;;5016566;28;20018;-76
2024/01/29 05:03:24;;;;;;;6.43;4.22;;;3.50;99.90;;;;;;5035031;28;20022;-77
2024/01/29 05:05:52;;;;;;;8.52;4.70;;;3.50;99.90;;;;;;5033671;28;20036;-77
2024/01/29 05:08:19;;;;;;;7.43;4.47;;;3.50;99.90;;;;;;5034950;28;20025;-77
2024/01/29 05:10:45;;;;;;;9.18;3.97;;;3.50;99.90;;;;;;5034750;28;20022;-78
2024/01/29 05:13:11;;;;;;;7.45;4.45;;;3.50;99.90;;;;;;5035095;28;20022;-77
2024/01/29 05:15:37;;;;;;;7.35;4.45;;;3.50;99.90;;;;;;5033831;28;20076;-76
2024/01/29 05:18:06;;;;;;;8.07;4.32;;;3.60;99.90;;;;;;5034802;28;20476;-77
2024/01/29 05:20:32;;;;;;;7.45;4.68;;;3.60;99.90;;;;;;5034035;28;20032;-77
2024/01/29 05:22:57;;;;;;;7.60;4.70;;;3.70;99.90;;;;;;5034933;28;20025;-77
2024/01/29 05:25:26;;;;;;;7.25;4.07;;;3.70;99.90;;;;;;5034064;28;20051;-76
2024/01/29 05:27:51;;;;;;;6.47;4.25;;;3.80;99.90;;;;;;5034535;28;20091;-77
2024/01/29 05:30:17;;;;;;;8.57;4.82;;;3.90;99.90;;;;;;5034056;28;20025;-77
2024/01/29 05:32:43;;;;;;;9.80;4.88;;;4.00;99.90;;;;;;5034671;28;20021;-77
2024/01/29 05:35:09;;;;;;;8.00;4.20;;;4.10;99.90;;;;;;5033940;28;20390;-77
2024/01/29 05:37:35;;;;;;;7.90;4.05;;;4.20;99.90;;;;;;5016804;28;20056;-77
2024/01/29 05:40:02;;;;;;;7.57;4.50;;;4.30;99.90;;;;;;5016228;28;20017;-77
2024/01/29 05:42:27;;;;;;;8.88;4.65;;;4.40;99.90;;;;;;5034501;28;20064;-77
2024/01/29 05:44:53;;;;;;;7.78;4.53;;;4.50;99.90;;;;;;5034011;28;20030;-77
2024/01/29 05:47:19;;;;;;;8.23;4.70;;;4.60;99.90;;;;;;5034489;28;20033;-77
2024/01/29 05:49:44;;;;;;;8.27;4.47;;;4.70;99.90;;;;;;5033939;28;20302;-76
2024/01/29 05:52:10;;;;;;;8.98;4.47;;;4.70;99.90;;;;;;5036400;28;20564;-76
2024/01/29 05:54:36;;;;;;;7.65;4.20;;;4.80;99.90;;;;;;5037524;28;20364;-77
2024/01/29 05:57:02;;;;;;;7.85;4.85;;;4.90;99.90;;;;;;5037939;28;20036;-77
2024/01/29 05:59:30;;;;;;;7.38;4.50;;;4.90;99.90;;;;;;5037407;28;20089;-76
2024/01/29 06:01:56;;;;;;;8.05;4.50;;;4.90;99.90;;;;;;5037740;28;20089;-76
2024/01/29 06:04:21;;;;;;;8.38;4.97;;;5.00;99.90;;;;;;5037369;28;20060;-76
2024/01/29 06:06:47;;;;;;;9.13;4.75;;;5.00;99.90;;;;;;5037953;28;20017;-77
2024/01/29 06:09:14;;;;;;;6.65;4.07;;;5.00;99.90;;;;;;5023829;28;20032;-75
2024/01/29 06:11:41;;;;;;;8.18;4.60;;;5.10;99.90;;;;;;5019661;28;20486;-77
2024/01/29 06:14:10;;;;;;;8.82;4.07;;;5.10;99.90;;;;;;5037317;28;20036;-77
2024/01/29 06:16:36;;;;;;;8.93;4.63;;;5.20;99.90;;;;;;5037204;28;20084;-77
2024/01/29 06:19:04;;;;;;;8.48;4.80;;;5.20;99.90;;;;;;5037485;28;20364;-76
2024/01/29 06:21:30;;;;;;;8.70;4.63;;;5.20;99.90;;;;;;5037496;28;20021;-76
2024/01/29 06:23:56;;;;;;;9.70;4.60;;;5.20;99.90;;;;;;5037473;28;20449;-76
2024/01/29 06:26:21;;;;;;;9.35;4.28;;;5.20;99.90;;;;;;5037252;28;20133;-77
2024/01/29 06:28:47;;;;;;;6.80;4.10;;;5.20;99.90;;;;;;5037913;28;20402;-77
2024/01/29 06:31:13;;;;;;;9.35;5.10;;;5.30;99.90;;;;;;5036726;28;20026;-78
2024/01/29 06:33:39;;;;;;;8.73;5.32;;;5.30;99.90;;;;;;5037249;28;20386;-77
2024/01/29 06:36:15;;;;;;;8.98;5.03;;;5.30;99.90;;;;;;5036758;28;20060;-78
2024/01/29 06:38:40;;;;;;;8.43;4.60;;;5.30;99.90;;;;;;5037254;28;20026;-77
2024/01/29 06:41:06;;;;;;;10.50;4.95;;;5.30;99.90;;;;;;5036571;28;20033;-77
2024/01/29 06:43:34;;;;;;;8.05;4.50;;;5.30;99.90;;;;;;5036979;28;20076;-77
2024/01/29 06:46:00;;;;;;;7.97;4.25;;;5.30;99.90;;;;;;5036424;28;20022;-77
2024/01/29 06:48:26;;;;;;;10.35;5.05;;;5.30;99.90;;;;;;5036877;28;20399;-77
2024/01/29 06:50:55;;;;;;;9.10;5.40;;;5.40;99.90;;;;;;5036556;28;20025;-77
2024/01/29 06:53:21;;;;;;;8.73;5.03;;;5.40;99.90;;;;;;5037059;28;20075;-76
2024/01/29 06:55:49;;;;;;;12.35;4.80;;;5.40;99.90;;;;;;5035708;28;20313;-76
2024/01/29 06:58:15;;;;;;;9.80;4.47;;;5.40;99.90;;;;;;5036710;28;20628;-78
2024/01/29 07:00:40;;;;;;;7.25;4.20;;;5.50;99.90;;;;;;5035952;28;20169;-78
2024/01/29 07:03:06;;;;;;;7.32;4.13;;;5.50;99.90;;;;;;5036273;28;20086;-77
2024/01/29 07:05:32;;;;;;;7.30;4.45;;;5.50;99.90;;;;;;5036179;28;20095;-78
2024/01/29 07:07:57;;;;;;;7.45;4.72;;;5.50;99.90;;;;;;5039330;28;20036;-77
2024/01/29 07:10:23;;;;;;;7.63;4.00;;;5.50;99.90;;;;;;5045283;28;20110;-77
2024/01/29 07:12:52;;;;;;;8.98;4.38;;;5.50;99.90;;;;;;5035931;28;20508;-77
2024/01/29 07:15:18;;;;;;;10.07;4.22;;;5.50;99.90;;;;;;5017842;28;20049;-76
2024/01/29 07:17:45;;;;;;;7.72;4.65;;;5.50;99.90;;;;;;5036124;28;20088;-75
2024/01/29 07:20:11;;;;;;;10.30;4.35;;;5.50;99.90;;;;;;5034978;28;20021;-76
2024/01/29 07:22:38;;;;;;;8.13;4.60;;;5.50;99.90;;;;;;5036448;28;20049;-76
2024/01/29 07:25:05;;;;;;;11.15;5.40;;;5.50;99.90;;;;;;5035582;28;20021;-77
2024/01/29 07:27:31;;;;;;;7.78;4.15;;;5.50;99.90;;;;;;5018118;28;20033;-78
2024/01/29 07:29:57;;;;;;;8.43;4.55;;;5.50;99.90;;;;;;5034881;28;20052;-77
2024/01/29 07:32:31;;;;;;;9.57;4.60;;;5.60;99.90;;;;;;5035586;28;20069;-77
2024/01/29 07:34:58;;;;;;;11.60;5.18;;;5.50;99.90;;;;;;5031882;28;20021;-77
2024/01/29 07:37:23;;;;;;;6.70;4.38;;;5.60;99.90;;;;;;5017317;28;20022;-77
2024/01/29 07:39:51;;;;;;;9.40;4.35;;;5.50;99.90;;;;;;5016895;28;20491;-77
2024/01/29 07:42:16;;;;;;;9.43;4.90;;;5.50;99.90;;;;;;5017769;28;20072;-76
2024/01/29 07:44:43;;;;;;;8.35;5.07;;;5.50;99.90;;;;;;5035192;28;20077;-77
2024/01/29 07:47:11;;;;;;;6.88;4.32;;;5.50;99.90;;;;;;5017505;28;20071;-77
2024/01/29 07:49:37;;;;;;;7.72;4.72;;;5.60;99.90;;;;;;5035183;28;20029;-77
2024/01/29 07:52:03;;;;;;;8.23;4.43;;;5.60;99.90;;;;;;5035326;28;20017;-77
2024/01/29 07:54:31;;;;;;;8.50;4.45;;;5.60;99.90;;;;;;5035540;28;20032;-78
2024/01/29 07:56:57;;;;;;;9.40;5.00;;;5.60;99.90;;;;;;5035568;28;20017;-77
2024/01/29 07:59:23;;;;;;;8.93;4.90;;;5.60;99.90;;;;;;5035697;28;20026;-76
2024/01/29 08:01:49;;;;;;;9.63;4.65;;;5.70;99.90;;;;;;5035639;28;20048;-77
2024/01/29 08:04:14;;;;;;;7.60;4.55;;;5.70;99.90;;;;;;5035798;28;20092;-77
2024/01/29 08:06:40;;;;;;;7.70;4.78;;;5.70;99.90;;;;;;5035445;28;20432;-77
2024/01/29 08:09:09;;;;;;;7.57;4.72;;;5.80;99.90;;;;;;5034074;28;20615;-77
2024/01/29 08:11:35;;;;;;;9.07;4.95;;;5.80;99.90;;;;;;5039820;28;20057;-77
2024/01/29 08:14:04;;;;;;;6.85;4.30;;;5.80;99.90;;;;;;5033396;28;20161;-77
2024/01/29 08:16:31;;;;;;;9.95;4.90;;;5.80;99.90;;;;;;5016602;28;20628;-76
2024/01/29 08:19:00;;;;;;;7.88;4.88;;;5.90;99.90;;;;;;5034481;28;20138;-77
2024/01/29 08:21:26;;;;;;;8.32;5.43;;;5.90;99.90;;;;;;5036979;28;20025;-77
2024/01/29 08:23:52;;;;;;;7.20;4.60;;;5.90;99.90;;;;;;5043105;28;20564;-78
2024/01/29 08:26:17;;;;;;;9.20;5.20;;;6.00;99.90;;;;;;5034608;28;20037;-77
2024/01/29 08:28:43;;;;;;;9.93;5.10;;;6.00;99.90;;;;;;5034934;28;20108;-78
2024/01/29 08:31:10;;;;;;;8.80;4.85;;;6.00;99.90;;;;;;5034152;28;20034;-77
2024/01/29 08:33:44;;;;;;;9.07;4.95;;;6.10;99.90;;;;;;5032481;28;20018;-77
2024/01/29 08:36:10;;;;;;;7.70;4.53;;;6.20;99.90;;;;;;5034100;28;20029;-77
2024/01/29 08:38:36;;;;;;;8.80;5.13;;;6.30;99.90;;;;;;5037319;28;20060;-77
2024/01/29 08:41:03;;;;;;;8.38;5.47;;;6.40;99.90;;;;;;5038448;28;20471;-77
2024/01/29 08:43:28;;;;;;;8.95;4.82;;;6.50;99.90;;;;;;5034853;28;20048;-77
2024/01/29 08:45:54;;;;;;;11.05;5.60;;;6.60;99.90;;;;;;5034525;28;20068;-77
2024/01/29 08:48:20;;;;;;;7.55;5.00;;;6.60;99.90;;;;;;5015863;28;20041;-77
2024/01/29 08:50:48;;;;;;;8.57;5.32;;;6.70;99.90;;;;;;5034368;28;20025;-77
2024/01/29 08:53:14;;;;;;;9.07;5.20;;;6.80;99.90;;;;;;5034754;28;20091;-77
2024/01/29 08:55:39;;;;;;;8.10;4.97;;;6.90;99.90;;;;;;5034421;28;20025;-77
2024/01/29 08:58:08;;;;;;;8.63;5.15;;;6.90;99.90;;;;;;5036841;28;20053;-76
2024/01/29 09:00:34;;;;;;;7.82;5.03;;;7.00;99.90;;;;;;5032799;28;20041;-76
2024/01/29 09:02:59;;;;;;;9.88;5.53;;;7.00;99.90;;;;;;5016917;28;20475;-76
2024/01/29 09:05:25;;;;;;;8.27;4.93;;;7.00;99.90;;;;;;5034219;28;20034;-76
2024/01/29 09:07:52;;;;;;;9.60;5.88;;;7.00;99.90;;;;;;5034703;28;20026;-76
2024/01/29 09:10:17;;;;;;;11.18;5.18;;;7.10;99.90;;;;;;5033694;28;20033;-77
2024/01/29 09:12:44;;;;;;;9.10;5.40;;;7.10;99.90;;;;;;5034277;28;20395;-77
2024/01/29 09:15:10;;;;;;;9.82;5.20;;;7.10;99.90;;;;;;5033669;28;20041;-77
2024/01/29 09:17:36;;;;;;;12.25;5.43;;;7.10;99.90;;;;;;5034562;28;20025;-76
2024/01/29 09:20:06;;;;;;;7.95;5.47;;;7.10;99.90;;;;;;5034063;28;20063;-77
2024/01/29 09:22:32;;;;;;;11.00;5.28;;;7.10;99.90;;;;;;5034700;28;20029;-77
2024/01/29 09:24:57;;;;;;;8.90;5.63;;;7.10;99.90;;;;;;5034082;28;20022;-76
2024/01/29 09:27:26;;;;;;;8.90;5.85;;;7.20;99.90;;;;;;5019068;28;20454;-76
2024/01/29 09:29:52;;;;;;;9.07;5.45;;;7.20;99.90;;;;;;5037860;28;20029;-76
2024/01/29 09:32:20;;;;;;;7.55;5.50;;;7.20;99.90;;;;;;5038328;28;20026;-76
2024/01/29 09:34:46;;;;;;;10.00;5.65;;;7.20;99.90;;;;;;5043850;28;20025;-77
2024/01/29 09:37:12;;;;;;;8.77;5.45;;;7.20;99.90;;;;;;5037838;28;20024;-77
2024/01/29 09:39:37;;;;;;;10.35;5.38;;;7.30;99.90;;;;;;5037650;28;20033;-77
2024/01/29 09:42:04;;;;;;;8.30;5.35;;;7.30;99.90;;;;;;5036574;28;20021;-77
2024/01/29 09:44:38;;;;;;;8.38;5.78;;;7.40;99.90;;;;;;5038070;28;20148;-77
2024/01/29 09:47:07;;;;;;;12.32;5.70;;;7.40;99.90;;;;;;5036999;28;20160;-78
2024/01/29 09:49:39;;;;;;;9.25;5.60;;;7.50;99.90;;;;;;5019978;28;20090;-79
2024/01/29 09:52:09;;;;;;;11.73;6.75;;;7.60;99.90;;;;;;5037532;28;20030;-79
2024/01/29 09:54:37;;;;;;;9.70;5.90;;;7.60;99.90;;;;;;5036309;28;20056;-78
2024/01/29 09:57:11;;;;;;;9.30;5.78;;;7.70;99.90;;;;;;5037206;28;20021;-77
2024/01/29 09:59:38;;;;;;;11.75;6.55;;;7.80;99.90;;;;;;5033068;28;20017;-79
2024/01/29 10:02:03;;;;;;;10.82;6.07;;;8.00;99.90;;;;;;5037208;28;20335;-79
2024/01/29 10:04:29;;;;;;;8.57;5.95;;;8.00;99.90;;;;;;5037818;28;20104;-79
2024/01/29 10:06:58;;;;;;;10.82;6.68;;;8.20;99.90;;;;;;5037330;28;20048;-76
2024/01/29 10:09:24;;;;;;;9.77;6.30;;;8.30;99.90;;;;;;5019610;28;20095;-78
2024/01/29 10:11:52;;;;;;;9.10;5.90;;;8.30;99.90;;;;;;5019443;28;20438;-77
2024/01/29 10:14:18;;;;;;;9.07;6.05;;;8.40;99.90;;;;;;5037313;28;20021;-79
2024/01/29 10:16:44;;;;;;;10.75;6.35;;;8.50;99.90;;;;;;5036847;28;20064;-78
2024/01/29 10:19:12;;;;;;;10.68;6.93;;;8.60;99.90;;;;;;5037046;28;20033;-76
2024/01/29 10:21:45;;;;;;;8.82;5.93;;;8.60;99.90;;;;;;5020834;28;20180;-78
2024/01/29 10:24:17;;;;;;;9.13;6.38;;;8.70;99.90;;;;;;5034950;28;20047;-76
2024/01/29 10:26:43;;;;;;;11.48;7.00;;;8.70;99.90;;;;;;5018269;28;20041;-77
2024/01/29 10:29:12;;;;;;;17.65;6.93;;;8.60;99.90;;;;;;5046296;28;20111;-78
2024/01/29 10:31:38;;;;;;;12.80;6.60;;;8.70;99.90;;;;;;5036428;28;20034;-76
2024/01/29 10:34:07;;;;;;;8.98;6.55;;;8.70;99.90;;;;;;5036529;28;20041;-77
2024/01/29 10:36:34;;;;;;;9.88;6.63;;;8.70;99.90;;;;;;5023964;28;20037;-76
2024/01/29 10:39:04;;;;;;;11.43;6.05;;;8.70;99.90;;;;;;5019098;28;20029;-75
2024/01/29 10:41:32;;;;;;;9.38;5.57;;;8.70;99.90;;;;;;5036471;28;20017;-77
2024/01/29 10:44:02;;;;;;;9.30;6.57;;;8.80;99.90;;;;;;5037149;28;20021;-76
2024/01/29 10:46:38;;;;;;;11.13;6.60;;;8.90;99.90;;;;;;5036582;28;20418;-76
2024/01/29 10:49:04;;;;;;;9.70;5.80;;;8.90;99.90;;;;;;5037063;28;20033;-76
2024/01/29 10:51:32;;;;;;;10.35;6.38;;;9.00;99.90;;;;;;5018020;28;20462;-76
2024/01/29 10:54:00;;;;;;;8.88;6.22;;;9.10;99.90;;;;;;5037251;28;20025;-76
2024/01/29 10:56:30;;;;;;;11.30;6.60;;;9.20;99.90;;;;;;5035848;28;20105;-77
2024/01/29 10:58:59;;;;;;;12.27;6.90;;;9.30;99.90;;;;;;5037057;28;20052;-76
2024/01/29 11:01:25;;;;;;;11.48;6.93;;;9.40;99.90;;;;;;5036986;28;20171;-76
2024/01/29 11:03:52;;;;;;;9.57;6.32;;;9.40;99.90;;;;;;5018681;28;20089;-77
2024/01/29 11:06:55;;;;;;;10.45;7.05;;;9.60;99.90;;;;;;5017862;28;20022;-78
2024/01/29 11:09:28;;;;;;;8.40;5.90;;;9.70;99.90;;;;;;5034453;28;20085;-76
2024/01/29 11:11:56;;;;;;;10.25;6.65;;;9.80;99.90;;;;;;5035486;28;20063;-77
2024/01/29 11:14:22;;;;;;;12.20;6.55;;;9.80;99.90;;;;;;5016908;28;20017;-77
2024/01/29 11:16:51;;;;;;;10.05;6.45;;;9.90;99.90;;;;;;5035538;28;20045;-76
2024/01/29 11:19:17;;;;;;;11.25;6.22;;;10.00;99.90;;;;;;5038098;28;20028;-76
2024/01/29 11:21:50;;;;;;;11.60;6.57;;;10.20;99.90;;;;;;5043886;28;20033;-76
2024/01/29 11:24:22;;;;;;;11.57;7.40;;;10.30;99.90;;;;;;5036524;28;20542;-76
2024/01/29 11:26:51;;;;;;;10.50;6.35;;;10.40;99.90;;;;;;5037313;28;20375;-76
2024/01/29 11:29:22;;;;;;;19.85;7.40;;;10.50;99.90;;;;;;5035625;28;20087;-78
2024/01/29 11:31:53;;;;;;;;;;;10.60;99.90;;;;;;5017491;28;20035;-78
2024/01/29 11:34:27;;;;;;;9.18;6.60;;;10.70;99.90;;;;;;5035363;28;19916;-78
2024/01/29 11:36:54;;;;;;;9.77;6.82;;;10.70;99.90;;;;;;5017618;28;20108;-77
2024/01/29 11:39:22;;;;;;;9.23;6.15;;;10.80;99.90;;;;;;5036078;28;20105;-77
2024/01/29 11:41:49;;;;;;;10.95;7.30;;;10.90;99.90;;;;;;5017375;28;20045;-76
2024/01/29 11:44:18;;;;;;;10.05;7.20;;;11.00;99.90;;;;;;5035864;28;20026;-78
2024/01/29 11:46:47;;;;;;;8.65;6.35;;;11.10;99.90;;;;;;5035077;28;20056;-77
2024/01/29 11:49:23;;;;;;;10.98;6.95;;;11.20;99.90;;;;;;5035553;28;20025;-77
2024/01/29 11:51:49;;;;;;;10.90;7.07;;;11.30;99.90;;;;;;5035286;28;20068;-77
2024/01/29 11:54:15;;;;;;;12.80;6.80;;;11.40;99.90;;;;;;5040473;28;20029;-79
2024/01/29 11:56:40;;;;;;;11.40;7.50;;;11.40;99.90;;;;;;5036903;28;20033;-78
2024/01/29 11:59:11;;;;;;;10.05;6.90;;;11.50;99.90;;;;;;5034420;28;20029;-78
2024/01/29 12:01:36;;;;;;;11.55;7.07;;;11.50;99.90;;;;;;5035148;28;20080;-78
2024/01/29 12:04:02;;;;;;;10.50;7.30;;;11.60;99.90;;;;;;5034899;28;20021;-76
2024/01/29 12:06:34;;;;;;;11.27;7.32;;;11.60;99.90;;;;;;5034843;28;20394;-77
2024/01/29 12:09:00;;;;;;;10.93;7.47;;;11.70;99.90;;;;;;5033499;28;20024;-76
2024/01/29 12:11:26;;;;;;;11.20;7.47;;;11.70;99.90;;;;;;5016656;28;20041;-76
2024/01/29 12:13:55;;;;;;;11.38;7.45;;;11.60;99.90;;;;;;5035209;28;20403;-77
2024/01/29 12:16:22;;;;;;;11.55;7.25;;;11.60;99.90;;;;;;5030888;28;20376;-78
2024/01/29 12:18:51;;;;;;;11.55;6.93;;;11.60;99.90;;;;;;5034441;28;20075;-77
2024/01/29 12:21:17;;;;;;;11.45;6.85;;;11.70;99.90;;;;;;5030794;28;20063;-76
2024/01/29 12:23:42;;;;;;;11.50;7.05;;;11.80;99.90;;;;;;5033097;28;20105;-76
2024/01/29 12:26:08;;;;;;;11.52;7.22;;;11.80;99.90;;;;;;5032674;28;20044;-77
2024/01/29 12:28:34;;;;;;;13.80;7.53;;;11.90;99.90;;;;;;5033210;28;20049;-77
2024/01/29 12:31:06;;;;;;;11.43;8.15;;;11.90;99.90;;;;;;5032596;28;20374;-77
2024/01/29 12:33:35;;;;;;;13.77;7.80;;;12.00;99.90;;;;;;5015621;28;20105;-78
2024/01/29 12:36:14;;;;;;;12.50;7.97;;;12.00;99.90;;;;;;5032631;28;20483;-77
2024/01/29 12:38:40;;;;;;;10.90;7.68;;;12.00;99.90;;;;;;5015546;28;20129;-78
2024/01/29 12:41:09;;;;;;;12.10;7.47;;;12.00;99.90;;;;;;5032762;28;20104;-78
2024/01/29 12:43:35;;;;;;;12.82;7.88;;;11.90;99.90;;;;;;5034288;28;20073;-79
2024/01/29 12:46:03;;;;;;;12.95;7.13;;;11.90;99.90;;;;;;5030232;28;20133;-78
2024/01/29 12:48:29;;;;;;;11.02;7.57;;;11.90;99.90;;;;;;5034820;28;20025;-78
2024/01/29 12:50:58;;;;;;;11.85;7.68;;;11.90;99.90;;;;;;5012772;28;20510;-77